createdAt,value
2022-08-15T00:03:03.199Z,40.65
2022-08-15T00:08:50.442Z,40.45
2022-08-15T00:13:41.482Z,40.67
2022-08-15T00:18:54.516Z,40.65
2022-08-15T00:23:58.258Z,40.10
2022-08-15T00:29:04.566Z,39.97
2022-08-15T00:34:39.796Z,40.58
2022-08-15T00:39:43.335Z,40.33
2022-08-15T00:44:52.463Z,40.25
2022-08-15T00:50:34.270Z,40.28
2022-08-15T00:55:42.215Z,40.70
2022-08-15T01:00:49.555Z,39.70
2022-08-15T01:05:56.816Z,40.35
2022-08-15T01:11:05.714Z,39.63
2022-08-15T01:16:12.383Z,40.45
2022-08-15T01:21:29.020Z,40.03
2022-08-15T01:26:41.435Z,40.30
2022-08-15T01:31:49.482Z,39.85
2022-08-15T01:36:55.512Z,40.67
2022-08-15T01:42:08.204Z,39.90
2022-08-15T01:47:18.399Z,40.17
2022-08-15T01:52:59.894Z,40.25
2022-08-15T01:57:51.306Z,40.70
2022-08-15T02:02:56.253Z,40.33
2022-08-15T02:08:34.991Z,40.28
2022-08-15T02:13:25.417Z,40.53
2022-08-15T02:18:29.494Z,40.25
2022-08-15T02:23:32.465Z,40.72
2022-08-15T02:28:44.388Z,40.65
2022-08-15T02:33:53.619Z,40.15
2022-08-15T02:38:59.677Z,38.88
2022-08-15T02:44:05.907Z,39.70
2022-08-15T02:49:14.370Z,39.90
2022-08-15T02:54:37.592Z,39.20
2022-08-15T02:59:47.421Z,39.60
2022-08-15T03:05:19.018Z,39.17
2022-08-15T03:10:29.102Z,39.60
2022-08-15T03:15:41.990Z,39.60
2022-08-15T03:20:46.237Z,39.63
2022-08-15T03:25:55.877Z,38.83
2022-08-15T03:31:07.337Z,39.00
2022-08-15T03:36:11.607Z,39.70
2022-08-15T03:41:18.262Z,38.95
2022-08-15T03:46:46.315Z,38.83
2022-08-15T03:51:51.857Z,39.22
2022-08-15T03:56:55.587Z,39.20
2022-08-15T04:02:01.077Z,38.97
2022-08-15T04:07:05.898Z,38.83
2022-08-15T04:12:30.864Z,38.95
2022-08-15T04:17:57.241Z,38.65
2022-08-15T04:23:00.199Z,38.65
2022-08-15T04:28:06.691Z,38.60
2022-08-15T04:34:22.545Z,38.58
2022-08-15T04:38:59.838Z,38.15
2022-08-15T04:44:17.984Z,38.00
2022-08-15T04:49:26.088Z,38.47
2022-08-15T04:54:30.163Z,38.22
2022-08-15T05:00:04.436Z,37.92
2022-08-15T05:05:25.179Z,37.85
2022-08-15T05:10:41.009Z,38.63
2022-08-15T05:15:48.440Z,38.50
2022-08-15T05:20:59.694Z,38.35
2022-08-15T05:26:52.973Z,38.22
2022-08-15T05:31:32.516Z,38.65
2022-08-15T05:36:41.508Z,38.75
2022-08-15T05:41:54.317Z,38.55
2022-08-15T05:47:11.035Z,38.72
2022-08-15T05:52:31.861Z,38.60
2022-08-15T05:57:46.806Z,40.38
2022-08-15T06:02:58.756Z,39.47
2022-08-15T06:08:49.596Z,38.80
2022-08-15T06:13:39.078Z,38.60
2022-08-15T06:18:43.998Z,38.60
2022-08-15T06:24:07.905Z,38.25
2022-08-15T06:29:54.778Z,38.55
2022-08-15T06:35:09.240Z,38.53
2022-08-15T06:40:27.967Z,38.38
2022-08-15T06:45:38.039Z,38.88
2022-08-15T06:50:54.732Z,38.45
2022-08-15T06:56:05.139Z,38.45
2022-08-15T07:01:21.732Z,39.08
2022-08-15T07:06:36.646Z,38.65
2022-08-15T07:11:55.150Z,38.85
2022-08-15T07:17:07.473Z,38.22
2022-08-15T07:22:12.418Z,38.90
2022-08-15T07:27:18.834Z,38.80
2022-08-15T07:32:33.556Z,39.67
2022-08-15T07:37:43.011Z,38.90
2022-08-15T07:43:10.831Z,39.92
2022-08-15T07:48:24.497Z,39.03
2022-08-15T07:53:34.331Z,39.50
2022-08-15T07:58:42.316Z,39.30
2022-08-15T08:03:56.887Z,39.75
2022-08-15T08:09:16.823Z,39.22
2022-08-15T08:14:40.016Z,39.65
2022-08-15T08:20:05.255Z,39.10
2022-08-15T08:25:16.116Z,39.72
2022-08-15T08:30:43.561Z,40.47
2022-08-15T08:35:54.816Z,39.83
2022-08-15T08:41:25.452Z,39.85
2022-08-15T08:46:53.956Z,39.53
2022-08-15T08:52:05.785Z,39.60
2022-08-15T08:57:15.809Z,39.90
2022-08-15T09:02:29.805Z,39.65
2022-08-15T09:07:41.080Z,39.65
2022-08-15T09:13:07.506Z,40.33
2022-08-15T09:18:23.200Z,40.22
2022-08-15T09:23:39.452Z,39.53
2022-08-15T09:28:46.156Z,40.08
2022-08-15T09:34:30.599Z,39.72
2022-08-15T09:40:00.609Z,41.10
2022-08-15T09:45:44.910Z,40.08
2022-08-15T09:51:14.309Z,39.80
2022-08-15T09:56:27.362Z,40.22
2022-08-15T10:01:42.517Z,40.08
2022-08-15T10:06:59.227Z,40.25
2022-08-15T10:12:33.227Z,40.53
2022-08-15T10:17:58.160Z,40.88
2022-08-15T10:23:12.845Z,40.17
2022-08-15T10:28:37.117Z,41.55
2022-08-15T10:33:58.836Z,40.58
2022-08-15T10:39:29.848Z,40.72
2022-08-15T10:44:46.081Z,40.28
2022-08-15T10:50:02.850Z,40.95
2022-08-15T10:55:56.149Z,41.05
2022-08-15T11:00:55.172Z,41.17
2022-08-15T11:06:01.122Z,40.85
2022-08-15T11:11:09.293Z,40.88
2022-08-15T11:16:33.177Z,40.80
2022-08-15T11:21:44.046Z,41.53
2022-08-15T11:26:53.825Z,41.70
2022-08-15T11:32:24.994Z,41.35
2022-08-15T11:37:26.449Z,41.53
2022-08-15T11:42:37.723Z,42.30
2022-08-15T11:48:01.329Z,42.33
2022-08-15T11:53:11.480Z,41.65
2022-08-15T11:58:29.678Z,41.85
2022-08-15T12:04:40.103Z,41.78
2022-08-15T12:09:14.469Z,42.15
2022-08-15T12:14:23.855Z,42.05
2022-08-15T12:19:31.558Z,41.70
2022-08-15T12:24:54.394Z,41.85
2022-08-15T12:29:58.848Z,41.70
2022-08-15T12:35:04.285Z,42.15
2022-08-15T12:40:57.414Z,41.45
2022-08-15T12:45:36.098Z,42.15
2022-08-15T12:50:41.514Z,41.25
2022-08-15T12:55:46.741Z,40.90
2022-08-15T13:01:02.272Z,40.25
2022-08-15T13:06:31.911Z,40.35
2022-08-15T13:11:38.900Z,40.35
2022-08-15T13:17:10.011Z,40.53
2022-08-15T13:22:32.471Z,39.80
2022-08-15T13:27:36.966Z,40.05
2022-08-15T13:32:43.994Z,40.15
2022-08-15T13:38:00.432Z,39.92
2022-08-15T13:43:12.262Z,39.40
2022-08-15T13:48:20.993Z,39.05
2022-08-15T13:53:55.158Z,40.10
2022-08-15T13:58:57.924Z,40.53
2022-08-15T14:04:06.406Z,40.17
2022-08-15T14:09:18.477Z,39.70
2022-08-15T14:14:36.091Z,39.72
2022-08-15T14:20:01.975Z,39.78
2022-08-15T14:25:14.876Z,40.13
2022-08-15T14:30:34.495Z,39.80
2022-08-15T14:35:42.731Z,39.42
2022-08-15T14:40:46.861Z,39.03
2022-08-15T14:46:35.575Z,39.65
2022-08-15T14:51:23.205Z,40.00
2022-08-15T14:56:42.630Z,39.40
2022-08-15T15:01:46.639Z,39.95
2022-08-15T15:07:01.552Z,39.45
2022-08-15T15:12:04.789Z,39.80
2022-08-15T15:17:07.708Z,40.38
2022-08-15T15:22:17.342Z,40.95
2022-08-15T15:27:26.940Z,40.35
2022-08-15T15:32:33.456Z,41.10
2022-08-15T15:37:40.158Z,40.42
2022-08-15T15:42:48.508Z,40.45
2022-08-15T15:47:54.569Z,39.75
2022-08-15T15:53:20.152Z,39.95
2022-08-15T15:59:00.101Z,40.00
2022-08-15T16:03:57.885Z,39.85
2022-08-15T16:09:10.747Z,39.47
2022-08-15T16:14:19.948Z,39.25
2022-08-15T16:19:30.213Z,39.22
2022-08-15T16:24:39.676Z,39.60
2022-08-15T16:29:54.267Z,39.70
2022-08-15T16:34:59.569Z,38.53
2022-08-15T16:40:50.937Z,38.55
2022-08-15T16:46:16.607Z,38.70
2022-08-15T16:51:35.598Z,38.80
2022-08-15T16:56:46.548Z,38.78
2022-08-15T17:03:03.733Z,38.47
2022-08-15T17:07:42.542Z,39.05
2022-08-15T17:13:11.900Z,39.15
2022-08-15T17:18:44.537Z,39.25
2022-08-15T17:24:54.811Z,39.30
2022-08-15T17:29:40.597Z,39.15
2022-08-15T17:34:53.568Z,39.05
2022-08-15T17:40:14.476Z,40.50
2022-08-15T17:45:49.789Z,39.40
2022-08-15T17:51:11.005Z,39.35
2022-08-15T17:56:27.842Z,40.65
2022-08-15T18:01:43.505Z,39.03
2022-08-15T18:06:47.892Z,39.88
2022-08-15T18:12:01.650Z,39.83
2022-08-15T18:17:15.141Z,39.47
2022-08-15T18:22:25.718Z,39.80
2022-08-15T18:27:54.771Z,40.10
2022-08-15T18:33:03.968Z,39.55
2022-08-15T18:49:33.552Z,39.53
2022-08-15T18:55:01.186Z,39.28
2022-08-15T19:00:22.911Z,40.15
2022-08-15T19:05:43.756Z,41.20
2022-08-15T19:10:55.340Z,39.40
2022-08-15T19:16:18.538Z,39.15
2022-08-15T19:21:38.271Z,40.03
2022-08-15T19:27:07.294Z,39.45
2022-08-15T19:32:30.856Z,39.30
2022-08-15T19:38:13.530Z,40.13
2022-08-15T19:43:33.084Z,39.78
2022-08-15T19:48:48.921Z,39.75
2022-08-15T19:55:23.011Z,39.55
2022-08-15T19:59:42.438Z,39.58
2022-08-15T20:05:06.829Z,40.03
2022-08-15T20:11:10.502Z,40.10
2022-08-15T20:23:40.871Z,40.10
2022-08-15T20:29:00.563Z,40.15
2022-08-15T20:34:16.893Z,40.17
2022-08-15T20:39:28.229Z,39.90
2022-08-15T20:44:40.113Z,40.15
2022-08-15T20:49:53.027Z,39.67
2022-08-15T20:54:58.982Z,40.15
2022-08-15T21:01:12.089Z,39.65
2022-08-15T21:06:18.332Z,40.00
2022-08-15T21:11:51.320Z,39.97
2022-08-15T21:17:06.017Z,40.60
2022-08-15T21:22:45.655Z,39.97
2022-08-15T21:28:02.861Z,39.90
2022-08-15T21:33:10.821Z,39.63
2022-08-15T21:38:55.922Z,39.65
2022-08-15T21:44:14.828Z,39.70
2022-08-15T21:50:26.079Z,40.10
2022-08-15T21:55:44.329Z,39.58
2022-08-15T22:00:56.920Z,41.03
2022-08-15T22:06:06.708Z,39.90
2022-08-15T22:11:14.487Z,40.10
2022-08-15T22:16:38.189Z,40.67
2022-08-15T22:21:42.553Z,40.25
2022-08-15T22:26:51.759Z,40.25
2022-08-15T22:32:30.690Z,40.05
2022-08-15T22:37:20.933Z,40.17
2022-08-15T22:42:43.101Z,40.70
2022-08-15T22:47:48.152Z,40.20
2022-08-15T22:52:56.001Z,39.83
2022-08-15T22:58:01.205Z,39.63
2022-08-15T23:03:22.557Z,39.33
2022-08-15T23:08:31.681Z,39.67
2022-08-15T23:13:59.619Z,39.33
2022-08-15T23:19:21.355Z,39.35
2022-08-15T23:24:37.258Z,39.90
2022-08-15T23:29:48.037Z,39.90
2022-08-15T23:34:51.459Z,40.35
2022-08-15T23:39:59.382Z,40.15
2022-08-15T23:45:04.494Z,39.90
2022-08-15T23:50:18.060Z,40.42
2022-08-15T23:55:28.393Z,40.33
